x

Middle Nomad (46004) Wave Buoy

2:00pm - Tue 25th Nov 2014 All times are PST. -8 hours from GMT.

  • Sig Wave height 6.9ft
  • Peak Period 11s
  • Wind
    7mph, 11mph gusts
  • Air Temp 49°f
  • Sea Pressure 1020.6mb
  • Middle Nomad
  • Middle Nomad

More Historic Weather Station data

Upgrade to MSW Pro to gain access to the past 30 days of data for over 8000 Wavebouys and Weather Stations around the globe.

Join Pro

Comparision Forecast

View Surf forecast
   
Tue 11/25 2:00pm 7ft 11s 7 11 mph 1020.6mb 49f
1:00pm 7.5ft 10s 13 18 mph 1020.6mb 49f
12:00pm 7.5ft 11s 9 13 mph 1021.1mb 50f
11:00am 7.5ft 11s 7 9 mph 1021.6mb 50f
10:00am 8ft 12s 11 16 mph 1021.5mb 50f
9:00am 8ft 9s 4 9 mph 1021mb 51f
8:00am 7.5ft 10s 4 7 mph 1021.1mb 51f
7:00am 7.5ft 12s 4 7 mph 1020.9mb 51f
6:00am 8ft 12s 4 7 mph 1020.6mb 51f
5:00am 7.5ft 12s 4 7 mph 1020.8mb 51f
4:00am 8ft 11s 2 4 mph 1020.6mb 50f
3:00am 8ft 11s 2 4 mph 1020.8mb 51f
2:00am 8ft 12s  -  2 mph 1021mb 51f
1:00am 8ft 12s 2 4 mph 1020.9mb 51f
12:00am 8ft 11s 2 4 mph 1020.8mb 51f
Mon 11/24 11:00pm 8ft 10s 2 4 mph 1020.5mb 51f
10:00pm 9ft 11s 4 7 mph 1020.4mb 51f
9:00pm 9ft 12s 4
mph
1020.1mb 51f
8:00pm 9ft 11s 4 7 mph 1019.6mb 51f
7:00pm 8.5ft 12s 7 9 mph 1019.3mb 51f
6:00pm 9ft 11s 7 9 mph 1018.5mb 51f
5:00pm 9ft 12s 4 9 mph 1018.3mb 51f
4:00pm 9ft 11s 9 11 mph 1018.2mb 51f
3:00pm 9ft 12s 9 13 mph 1017.8mb 51f
2:00pm 10ft 12s 9 13 mph 1017.6mb 51f
1:00pm 9ft 11s 11 13 mph 1017mb 51f
12:00pm 9.5ft 11s 11 13 mph 1016.6mb 51f
11:00am 11ft 12s 13 18 mph 1016.4mb 51f
10:00am 11ft 13s 13 18 mph 1015.6mb 51f
9:00am 10ft 14s 11 13 mph 1014.7mb 51f
8:00am 12ft 12s 13 16 mph 1013.9mb 51f
7:00am 11.5ft 12s 13 16 mph 1013.7mb 50f
6:00am 11ft 12s 13 16 mph 1013.2mb 50f
5:00am 12ft 12s 16 18 mph 1013mb 50f
4:00am 11ft 13s 13 18 mph 1012.3mb 51f
3:00am 12ft 12s 13 18 mph 1012.1mb 51f
2:00am 12ft 13s 13 18 mph 1011.3mb 51f
1:00am 12ft 14s 13 18 mph 1010.7mb 51f
12:00am 13ft 12s 18 20 mph 1010.4mb 51f
Sun 11/23 11:00pm 13ft 13s 16 18 mph 1010mb 51f
10:00pm 13ft 12s 18 22 mph 1010.1mb 51f
9:00pm 13.5ft 14s 20 25 mph 1009.5mb 53f
8:00pm 14ft 14s 22 27 mph 1008.9mb 53f
7:00pm 14.5ft 12s 20 27 mph 1009.3mb 51f
6:00pm 14.5ft 12s 25 31 mph 1009.5mb 50f
5:00pm 15ft 13s 29 36 mph 1010.3mb 51f
4:00pm 14ft 12s 25 31 mph 1011mb 52f
3:00pm 15ft 13s 25 31 mph 1012.1mb 52f
2:00pm 15ft 13s 20 25 mph 1013mb 52f
1:00pm 15ft 12s 20 25 mph 1013.5mb 52f
12:00pm 15ft 13s 20 22 mph 1013.8mb 51f
11:00am 15.5ft 12s 18 22 mph 1013.9mb 51f
10:00am 15ft 10s 22 27 mph 1013.6mb 51f
9:00am  -   -  22
mph
1013.4mb 51f
8:00am 16ft 14s 22 27 mph 1012.5mb 51f
7:00am 15ft 14s 25 29 mph 1011.7mb 51f
6:00am 15.5ft 14s 22 27 mph 1011.3mb 50f
5:00am 16ft 12s 27 38 mph 1010.8mb 48f
4:00am 16ft 13s 25 34 mph 1009.9mb 51f
3:00am 15.5ft 12s 25 31 mph 1009.1mb 49f
2:00am 16ft 14s 29 36 mph 1007.8mb 51f
1:00am 16ft 14s 29 36 mph 1006.8mb 51f
12:00am 17.5ft 14s 27 36 mph 1005.8mb 50f
Sat 11/22 11:00pm 17.5ft 13s 29 34 mph 1004.6mb 49f
10:00pm 16.5ft 11s 27 34 mph 1003.7mb 48f
9:00pm 16ft 10s 31 36 mph 1002.2mb 50f
8:00pm 16.5ft 12s 29 36 mph 1001.3mb 50f
7:00pm 15.5ft 13s 27 34 mph 1000.4mb 50f
6:00pm 15.5ft 13s 29 36 mph 999.3mb 49f
5:00pm 14ft 12s 29 36 mph 998.1mb 49f
4:00pm 14ft 14s 27 36 mph 996.9mb 51f
3:00pm 14.5ft 13s 27 34 mph 997.9mb 49f
2:00pm 13ft 14s 29 36 mph 999mb 48f
1:00pm 14ft 13s 20 31 mph 1000.6mb 50f
12:00pm 14ft 13s 25 31 mph 1001.5mb 51f
11:00am 15ft 14s 25 31 mph 1001.8mb 51f
10:00am 16ft 13s 22 31 mph 1001.4mb 50f
9:00am 15ft 14s 27 34 mph 1000.8mb 51f
8:00am 15.5ft 12s 27 31 mph 1000.1mb 51f
7:00am 16ft 14s 20 25 mph 999.7mb 51f
6:00am 16.5ft 14s 25 34 mph 999mb 51f
5:00am 15ft 13s 25 31 mph 998.4mb 50f
4:00am 14.5ft 13s 25 29 mph 997.8mb 50f
3:00am 15ft 14s 18 27 mph 997.5mb 50f
2:00am 14.5ft 14s 20 25 mph 996.7mb 51f
1:00am 14ft 15s 25
mph
996.4mb 51f
12:00am 13.5ft 14s 20 25 mph 995.7mb 51f